createdAt,value
2018-09-06T00:02:22.453Z,4.40
2018-09-06T00:04:53.662Z,4.67
2018-09-06T00:07:24.950Z,4.83
2018-09-06T00:09:58.825Z,4.80
2018-09-06T00:12:29.920Z,4.70
2018-09-06T00:15:00.971Z,4.23
2018-09-06T00:17:32.163Z,4.83
2018-09-06T00:22:29.141Z,4.80
2018-09-06T00:25:00.518Z,4.80
2018-09-06T00:27:31.566Z,5.37
2018-09-06T00:30:02.663Z,5.27
2018-09-06T00:32:33.747Z,4.80
2018-09-06T00:35:04.935Z,4.80
2018-09-06T00:37:36.145Z,4.67
2018-09-06T00:40:07.867Z,5.07
2018-09-06T00:42:38.836Z,4.73
2018-09-06T00:45:09.890Z,4.90
2018-09-06T00:47:41.305Z,5.20
2018-09-06T00:50:16.921Z,4.47
2018-09-06T00:52:49.690Z,5.33
2018-09-06T00:55:21.380Z,5.27
2018-09-06T00:57:52.543Z,4.57
2018-09-06T01:00:23.760Z,4.60
2018-09-06T01:02:54.975Z,4.87
2018-09-06T01:05:26.152Z,5.00
2018-09-06T01:07:57.559Z,4.70
2018-09-06T01:10:28.576Z,5.03
2018-09-06T01:13:00.156Z,5.23
2018-09-06T01:15:31.271Z,5.20
2018-09-06T01:18:02.291Z,4.73
2018-09-06T01:20:33.283Z,5.17
2018-09-06T01:23:04.291Z,5.27
2018-09-06T01:25:40.104Z,5.07
2018-09-06T01:28:11.178Z,4.83
2018-09-06T01:33:08.006Z,5.00
2018-09-06T01:35:43.350Z,5.17
2018-09-06T01:38:14.670Z,5.27
2018-09-06T01:40:45.740Z,5.33
2018-09-06T01:43:16.781Z,4.70
2018-09-06T01:45:47.838Z,4.73
2018-09-06T01:48:18.959Z,4.90
2018-09-06T01:50:49.950Z,4.67
2018-09-06T01:53:20.951Z,5.37
2018-09-06T01:55:52.176Z,4.30
2018-09-06T01:58:23.254Z,4.60
2018-09-06T02:00:54.297Z,4.10
2018-09-06T02:03:25.595Z,4.90
2018-09-06T02:08:22.375Z,5.07
2018-09-06T02:10:53.471Z,4.47
2018-09-06T02:13:24.497Z,4.33
2018-09-06T02:15:55.592Z,4.80
2018-09-06T02:18:26.717Z,4.23
2018-09-06T02:20:57.766Z,4.70
2018-09-06T02:23:28.986Z,4.70
2018-09-06T02:26:00.362Z,4.80
2018-09-06T02:28:31.622Z,4.33
2018-09-06T02:31:02.658Z,5.10
2018-09-06T02:33:34.104Z,5.07
2018-09-06T02:36:05.355Z,4.80
2018-09-06T02:38:36.510Z,4.13
2018-09-06T02:43:56.613Z,4.50
2018-09-06T02:46:27.812Z,5.17
2018-09-06T02:48:58.838Z,4.40
2018-09-06T02:53:55.549Z,4.03
2018-09-06T02:58:52.443Z,4.00
2018-09-06T03:03:49.147Z,4.07
2018-09-06T03:06:20.188Z,4.30
2018-09-06T03:08:51.482Z,3.83
2018-09-06T03:11:26.129Z,4.67
2018-09-06T03:13:57.256Z,3.97
2018-09-06T03:16:31.935Z,4.03
2018-09-06T03:19:03.150Z,4.00
2018-09-06T03:21:34.124Z,4.30
2018-09-06T03:24:05.324Z,4.13
2018-09-06T03:26:36.451Z,3.80
2018-09-06T03:29:07.516Z,4.23
2018-09-06T03:31:38.553Z,4.43
2018-09-06T03:34:09.692Z,3.67
2018-09-06T03:36:40.743Z,4.10
2018-09-06T03:39:11.830Z,3.93
2018-09-06T03:41:42.966Z,4.60
2018-09-06T03:44:14.064Z,4.57
2018-09-06T03:46:45.196Z,4.33
2018-09-06T03:49:16.251Z,4.47
2018-09-06T03:51:47.235Z,4.50
2018-09-06T03:54:18.222Z,4.03
2018-09-06T03:56:49.211Z,4.10
2018-09-06T03:59:20.327Z,4.30
2018-09-06T04:01:51.600Z,4.30
2018-09-06T04:04:22.718Z,4.20
2018-09-06T04:06:53.762Z,4.23
2018-09-06T04:09:24.944Z,3.87
2018-09-06T04:11:56.043Z,3.63
2018-09-06T04:14:27.234Z,4.20
2018-09-06T04:16:58.556Z,3.90
2018-09-06T04:19:29.716Z,4.20
2018-09-06T04:23:04.023Z,3.80
2018-09-06T04:25:35.252Z,3.83
2018-09-06T04:28:06.424Z,4.17
2018-09-06T04:30:37.887Z,4.30
2018-09-06T04:33:08.986Z,4.07
2018-09-06T04:35:39.971Z,4.63
2018-09-06T04:38:10.966Z,4.70
2018-09-06T04:40:41.955Z,4.57
2018-09-06T04:43:12.907Z,4.37
2018-09-06T04:45:43.860Z,4.53
2018-09-06T04:48:14.982Z,4.27
2018-09-06T04:50:46.050Z,4.43
2018-09-06T04:53:17.268Z,4.80
2018-09-06T04:55:48.298Z,3.83
2018-09-06T04:58:19.483Z,4.60
2018-09-06T05:00:50.511Z,4.23
2018-09-06T05:03:21.588Z,5.13
2018-09-06T05:05:52.537Z,4.30
2018-09-06T05:08:23.630Z,4.40
2018-09-06T05:10:54.724Z,4.53
2018-09-06T05:13:25.903Z,4.83
2018-09-06T05:15:57.060Z,3.73
2018-09-06T05:18:28.127Z,4.43
2018-09-06T05:20:59.546Z,4.80
2018-09-06T05:23:30.563Z,4.10
2018-09-06T05:26:01.568Z,4.10
2018-09-06T05:28:32.574Z,4.00
2018-09-06T05:31:03.588Z,3.93
2018-09-06T05:33:34.564Z,4.00
2018-09-06T05:36:05.692Z,3.53
2018-09-06T05:38:36.704Z,3.60
2018-09-06T05:41:08.047Z,3.77
2018-09-06T05:43:39.085Z,3.90
2018-09-06T05:46:10.948Z,3.30
2018-09-06T05:48:42.194Z,3.43
2018-09-06T05:51:13.326Z,3.23
2018-09-06T05:53:44.503Z,2.83
2018-09-06T05:56:15.695Z,3.20
2018-09-06T05:58:46.819Z,2.63
2018-09-06T06:01:17.967Z,2.47
2018-09-06T06:03:48.947Z,2.77
2018-09-06T06:06:19.964Z,3.03
2018-09-06T06:08:52.079Z,2.90
2018-09-06T06:11:23.371Z,2.70
2018-09-06T06:13:54.359Z,2.77
2018-09-06T06:18:51.235Z,2.27
2018-09-06T06:21:22.259Z,2.20
2018-09-06T06:23:53.568Z,2.83
2018-09-06T06:26:24.806Z,2.43
2018-09-06T06:28:55.999Z,2.20
2018-09-06T06:31:27.236Z,2.27
2018-09-06T06:33:58.337Z,2.13
2018-09-06T06:36:29.778Z,2.00
2018-09-06T06:39:01.019Z,2.47
2018-09-06T06:41:32.092Z,1.93
2018-09-06T06:44:03.246Z,2.10
2018-09-06T06:46:34.392Z,2.10
2018-09-06T06:49:05.507Z,2.30
2018-09-06T06:51:36.678Z,2.20
2018-09-06T06:54:08.088Z,1.97
2018-09-06T06:56:39.146Z,1.77
2018-09-06T06:59:10.154Z,2.67
2018-09-06T07:01:41.222Z,2.03
2018-09-06T07:04:12.383Z,1.87
2018-09-06T07:06:43.780Z,2.00
2018-09-06T07:09:15.162Z,1.83
2018-09-06T07:11:46.547Z,2.10
2018-09-06T07:14:17.747Z,2.10
2018-09-06T07:16:48.786Z,2.10
2018-09-06T07:19:19.939Z,2.30
2018-09-06T07:21:51.022Z,2.37
2018-09-06T07:24:22.054Z,2.67
2018-09-06T07:26:53.147Z,1.87
2018-09-06T07:29:24.154Z,2.30
2018-09-06T07:31:55.403Z,1.90
2018-09-06T07:34:26.575Z,1.97
2018-09-06T07:36:57.630Z,2.70
2018-09-06T07:39:28.744Z,2.20
2018-09-06T07:44:32.127Z,2.60
2018-09-06T07:47:03.343Z,2.17
2018-09-06T07:49:34.366Z,2.33
2018-09-06T07:52:05.512Z,2.40
2018-09-06T07:54:36.668Z,2.30
2018-09-06T07:57:07.999Z,2.67
2018-09-06T07:59:39.146Z,2.40
2018-09-06T08:02:10.202Z,2.13
2018-09-06T08:04:41.220Z,1.97
2018-09-06T08:07:12.350Z,1.87
2018-09-06T08:09:43.411Z,1.80
2018-09-06T08:12:14.628Z,1.90
2018-09-06T08:14:45.783Z,2.67
2018-09-06T08:17:17.382Z,2.30
2018-09-06T08:19:48.432Z,2.27
2018-09-06T08:22:19.647Z,1.10
2018-09-06T08:24:51.131Z,1.63
2018-09-06T08:27:22.255Z,1.40
2018-09-06T08:29:53.511Z,0.70
2018-09-06T08:32:24.727Z,1.00
2018-09-06T08:34:55.778Z,1.20
2018-09-06T08:37:26.878Z,0.80
2018-09-06T08:39:57.947Z,0.60
2018-09-06T08:42:29.203Z,0.73
2018-09-06T08:45:00.228Z,0.80
2018-09-06T08:47:31.551Z,0.67
2018-09-06T08:50:02.858Z,0.53
2018-09-06T08:52:34.151Z,0.70
2018-09-06T08:55:05.211Z,1.03
2018-09-06T08:57:36.207Z,0.40
2018-09-06T09:00:07.610Z,0.50
2018-09-06T09:02:38.689Z,0.70
2018-09-06T09:05:09.831Z,0.53
2018-09-06T09:10:15.083Z,0.30
2018-09-06T09:12:46.271Z,0.30
2018-09-06T09:15:17.345Z,0.30
2018-09-06T09:17:48.371Z,0.20
2018-09-06T09:20:19.407Z,0.37
2018-09-06T09:22:50.590Z,0.33
2018-09-06T09:25:21.615Z,0.40
2018-09-06T09:27:53.223Z,0.17
2018-09-06T09:30:24.523Z,0.30
2018-09-06T09:32:55.706Z,0.10
2018-09-06T09:35:26.774Z,0.20
2018-09-06T09:37:57.825Z,0.30
2018-09-06T09:40:28.831Z,0.20
2018-09-06T09:43:00.035Z,0.30
2018-09-06T09:45:31.163Z,0.20
2018-09-06T09:48:02.211Z,0.20
2018-09-06T09:53:02.852Z,0.30
2018-09-06T09:55:33.787Z,0.30
2018-09-06T09:58:05.056Z,0.30
2018-09-06T10:00:38.934Z,0.40
2018-09-06T10:03:14.788Z,0.30
2018-09-06T10:05:55.715Z,0.40
2018-09-06T10:08:31.551Z,0.40
2018-09-06T10:11:03.198Z,0.30
2018-09-06T10:13:34.506Z,0.40
2018-09-06T10:16:06.007Z,0.30
2018-09-06T10:18:37.652Z,0.30
2018-09-06T10:21:09.602Z,0.40
2018-09-06T10:23:41.174Z,0.30
2018-09-06T10:26:13.110Z,0.50
2018-09-06T10:28:44.412Z,0.40
2018-09-06T10:31:16.126Z,0.20
2018-09-06T10:33:47.423Z,0.30
2018-09-06T10:36:19.039Z,0.20
2018-09-06T10:38:50.303Z,0.33
2018-09-06T10:41:21.527Z,0.47
2018-09-06T10:43:52.641Z,0.30
2018-09-06T10:46:24.064Z,0.40
2018-09-06T10:48:55.664Z,0.27
2018-09-06T10:51:27.135Z,0.40
2018-09-06T10:53:58.755Z,0.23
2018-09-06T10:56:30.723Z,0.50
2018-09-06T10:59:02.888Z,0.30
2018-09-06T11:01:34.578Z,0.30
2018-09-06T11:04:06.201Z,0.40
2018-09-06T11:06:37.603Z,0.37
2018-09-06T11:09:09.472Z,0.63
2018-09-06T11:11:41.146Z,0.40
2018-09-06T11:14:13.182Z,0.50
2018-09-06T11:16:44.778Z,0.80
2018-09-06T11:19:16.047Z,0.50
2018-09-06T11:21:47.442Z,0.53
2018-09-06T11:24:19.263Z,0.40
2018-09-06T11:26:50.910Z,0.47
2018-09-06T11:29:22.971Z,0.10
2018-09-06T11:31:54.502Z,0.17
2018-09-06T11:34:25.899Z,0.20
2018-09-06T11:36:57.738Z,0.30
2018-09-06T11:39:29.399Z,0.40
2018-09-06T11:42:00.762Z,0.30
2018-09-06T11:44:32.088Z,0.43
2018-09-06T11:47:03.621Z,0.30
2018-09-06T11:49:35.262Z,0.57
2018-09-06T11:52:07.194Z,0.20
2018-09-06T11:54:38.238Z,0.20
2018-09-06T11:57:09.453Z,0.70
2018-09-06T11:59:41.620Z,0.20
2018-09-06T12:02:13.159Z,0.17
2018-09-06T12:04:44.574Z,0.70
2018-09-06T12:07:16.113Z,0.27
2018-09-06T12:09:47.567Z,0.30
2018-09-06T12:12:18.698Z,0.60
2018-09-06T12:14:50.219Z,0.50
2018-09-06T12:17:21.666Z,0.30
2018-09-06T12:19:53.315Z,0.20
2018-09-06T12:22:24.799Z,0.33
2018-09-06T12:24:56.533Z,0.20
2018-09-06T12:27:27.992Z,0.70
2018-09-06T12:29:59.487Z,0.40
2018-09-06T12:32:31.486Z,0.30
2018-09-06T12:35:02.763Z,0.47
2018-09-06T12:37:34.523Z,0.20
2018-09-06T12:40:06.143Z,0.30
2018-09-06T12:42:37.703Z,0.43
2018-09-06T12:45:09.152Z,0.53
2018-09-06T12:47:40.527Z,0.63
2018-09-06T12:50:11.757Z,0.40
2018-09-06T12:52:43.016Z,0.30
2018-09-06T12:55:14.319Z,0.30
2018-09-06T12:57:45.406Z,0.33
2018-09-06T13:00:16.594Z,0.30
2018-09-06T13:02:47.702Z,0.63
2018-09-06T13:05:19.031Z,0.20
2018-09-06T13:07:50.266Z,0.53
2018-09-06T13:10:21.485Z,0.30
2018-09-06T13:12:52.920Z,0.20
2018-09-06T13:15:24.007Z,0.50
2018-09-06T13:17:55.091Z,0.40
2018-09-06T13:20:26.211Z,0.43
2018-09-06T13:22:57.283Z,0.50
2018-09-06T13:25:28.530Z,0.40
2018-09-06T13:28:10.695Z,0.40
2018-09-06T13:30:41.792Z,0.70
2018-09-06T13:33:12.871Z,0.40
2018-09-06T13:35:44.333Z,0.20
2018-09-06T13:38:16.064Z,0.50
2018-09-06T13:40:47.155Z,0.40
2018-09-06T13:43:18.236Z,0.70
2018-09-06T13:45:49.518Z,0.60
2018-09-06T13:48:20.662Z,0.60
2018-09-06T13:50:52.094Z,0.90
2018-09-06T13:55:49.206Z,0.60
2018-09-06T13:58:20.283Z,0.30
2018-09-06T14:00:51.331Z,0.60
2018-09-06T14:03:22.567Z,0.50
2018-09-06T14:05:53.729Z,0.53
2018-09-06T14:08:24.918Z,0.50
2018-09-06T14:10:56.119Z,0.63
2018-09-06T14:13:27.195Z,0.53
2018-09-06T14:15:58.243Z,0.50
2018-09-06T14:18:29.690Z,0.50
2018-09-06T14:21:01.048Z,0.63
2018-09-06T14:23:32.204Z,0.50
2018-09-06T14:26:03.593Z,0.80
2018-09-06T14:28:34.931Z,0.70
2018-09-06T14:31:05.970Z,0.70
2018-09-06T14:33:37.695Z,0.40
2018-09-06T14:36:09.350Z,0.60
2018-09-06T14:38:40.699Z,0.70
2018-09-06T14:41:12.119Z,0.67
2018-09-06T14:43:43.516Z,1.20
2018-09-06T14:46:14.872Z,0.90
2018-09-06T14:48:46.331Z,0.90
2018-09-06T14:51:17.812Z,0.90
2018-09-06T14:53:49.222Z,1.33
2018-09-06T14:56:20.774Z,1.47
2018-09-06T14:58:52.250Z,0.93
2018-09-06T15:01:23.773Z,1.00
2018-09-06T15:03:55.128Z,0.60
2018-09-06T15:06:26.410Z,0.87
2018-09-06T15:08:57.862Z,1.40
2018-09-06T15:11:29.295Z,0.90
2018-09-06T15:14:00.671Z,0.87
2018-09-06T15:16:32.003Z,1.10
2018-09-06T15:21:42.158Z,1.07
2018-09-06T15:24:13.642Z,0.90
2018-09-06T15:26:45.425Z,0.63
2018-09-06T15:29:16.719Z,0.87
2018-09-06T15:31:47.902Z,1.40
2018-09-06T15:34:19.496Z,1.00
2018-09-06T15:36:51.096Z,1.00
2018-09-06T15:39:22.546Z,1.10
2018-09-06T15:41:53.695Z,0.70
2018-09-06T15:44:25.085Z,0.83
2018-09-06T15:46:56.118Z,1.00
2018-09-06T15:49:27.373Z,1.07
2018-09-06T15:51:58.834Z,0.60
2018-09-06T15:54:30.422Z,1.00
2018-09-06T15:57:02.078Z,0.57
2018-09-06T15:59:33.170Z,0.93
2018-09-06T16:02:04.206Z,0.80
2018-09-06T16:04:35.295Z,0.90
2018-09-06T16:07:06.823Z,0.90
2018-09-06T16:09:38.318Z,1.00
2018-09-06T16:12:09.435Z,0.70
2018-09-06T16:14:40.778Z,0.73
2018-09-06T16:17:11.986Z,1.07
2018-09-06T16:19:43.051Z,0.73
2018-09-06T16:22:14.611Z,0.50
2018-09-06T16:24:46.172Z,0.60
2018-09-06T16:27:17.719Z,0.60
2018-09-06T16:29:48.996Z,0.57
2018-09-06T16:32:20.047Z,1.00
2018-09-06T16:34:51.380Z,0.83
2018-09-06T16:37:22.606Z,0.80
2018-09-06T16:39:54.159Z,0.87
2018-09-06T16:42:25.500Z,0.43
2018-09-06T16:44:56.761Z,0.67
2018-09-06T16:47:28.279Z,1.00
2018-09-06T16:49:59.844Z,0.83
2018-09-06T16:52:31.204Z,1.00
2018-09-06T16:55:02.654Z,0.50
2018-09-06T16:57:34.138Z,0.80
2018-09-06T17:00:05.410Z,0.70
2018-09-06T17:02:36.911Z,0.77
2018-09-06T17:05:08.104Z,0.90
2018-09-06T17:07:39.347Z,0.80
2018-09-06T17:10:10.555Z,0.80
2018-09-06T17:12:41.821Z,0.90
2018-09-06T17:15:12.946Z,0.60
2018-09-06T17:17:44.300Z,1.00
2018-09-06T17:20:15.430Z,0.80
2018-09-06T17:22:46.766Z,0.97
2018-09-06T17:25:18.458Z,0.90
2018-09-06T17:27:49.902Z,1.03
2018-09-06T17:30:21.398Z,0.80
2018-09-06T17:32:52.970Z,1.00
2018-09-06T17:35:24.619Z,1.07
2018-09-06T17:37:56.670Z,0.63
2018-09-06T17:40:27.980Z,0.80
2018-09-06T17:43:00.900Z,1.00
2018-09-06T17:45:33.099Z,0.70
2018-09-06T17:48:04.699Z,0.90
2018-09-06T17:50:37.775Z,0.70
2018-09-06T17:53:09.287Z,1.00
2018-09-06T17:55:40.450Z,0.70
2018-09-06T17:58:11.611Z,0.80
2018-09-06T18:00:47.739Z,0.60
2018-09-06T18:03:19.447Z,0.70
2018-09-06T18:05:51.087Z,0.70
2018-09-06T18:08:22.043Z,0.97
2018-09-06T18:10:53.059Z,0.97
2018-09-06T18:15:53.915Z,1.03
2018-09-06T18:18:25.450Z,0.70
2018-09-06T18:20:56.574Z,0.67
2018-09-06T18:25:53.451Z,0.73
2018-09-06T18:28:24.550Z,0.90
2018-09-06T18:30:56.027Z,1.00
2018-09-06T18:36:07.223Z,0.73
2018-09-06T18:38:38.546Z,0.70
2018-09-06T18:41:10.122Z,1.03
2018-09-06T18:43:41.240Z,0.80
2018-09-06T18:46:12.403Z,0.70
2018-09-06T18:48:44.278Z,0.67
2018-09-06T18:51:15.238Z,0.60
2018-09-06T18:53:46.321Z,1.10
2018-09-06T18:56:17.337Z,0.67
2018-09-06T18:58:48.744Z,1.03
2018-09-06T19:01:20.750Z,0.80
2018-09-06T19:03:51.724Z,0.80
2018-09-06T19:06:22.745Z,0.70
2018-09-06T19:08:54.050Z,0.70
2018-09-06T19:11:25.110Z,0.90
2018-09-06T19:13:56.202Z,0.67
2018-09-06T19:16:27.363Z,0.57
2018-09-06T19:18:58.402Z,0.73
2018-09-06T19:21:29.644Z,0.90
2018-09-06T19:24:00.651Z,0.60
2018-09-06T19:26:31.731Z,0.57
2018-09-06T19:29:02.898Z,0.73
2018-09-06T19:31:33.921Z,0.73
2018-09-06T19:34:05.206Z,0.73
2018-09-06T19:36:36.330Z,0.93
2018-09-06T19:39:10.633Z,0.70
2018-09-06T19:41:41.951Z,0.70
2018-09-06T19:44:13.240Z,1.00
2018-09-06T19:46:44.292Z,0.90
2018-09-06T19:49:15.423Z,0.70
2018-09-06T19:51:46.538Z,0.70
2018-09-06T19:54:17.795Z,0.60
2018-09-06T19:56:48.801Z,0.77
2018-09-06T19:59:19.861Z,0.60
2018-09-06T20:01:50.936Z,0.70
2018-09-06T20:04:21.930Z,1.03
2018-09-06T20:06:52.951Z,0.73
2018-09-06T20:09:24.010Z,1.27
2018-09-06T20:11:55.206Z,1.00
2018-09-06T20:14:26.323Z,0.97
2018-09-06T20:16:57.375Z,0.97
2018-09-06T20:19:28.382Z,0.70
2018-09-06T20:22:01.920Z,0.83
2018-09-06T20:24:34.685Z,1.00
2018-09-06T20:27:07.148Z,1.00
2018-09-06T20:29:38.203Z,0.87
2018-09-06T20:32:09.232Z,0.87
2018-09-06T20:34:40.429Z,0.87
2018-09-06T20:37:11.626Z,0.70
2018-09-06T20:39:44.319Z,0.63
2018-09-06T20:42:15.534Z,0.70
2018-09-06T20:44:46.938Z,0.70
2018-09-06T20:47:17.972Z,0.50
2018-09-06T20:49:48.990Z,0.80
2018-09-06T20:52:20.083Z,1.20
2018-09-06T20:57:18.809Z,0.80
2018-09-06T20:59:50.178Z,1.17
2018-09-06T21:02:23.840Z,1.17
2018-09-06T21:04:55.702Z,0.97
2018-09-06T21:07:27.076Z,1.00
2018-09-06T21:09:58.347Z,1.30
2018-09-06T21:12:29.376Z,1.00
2018-09-06T21:15:00.436Z,1.00
2018-09-06T21:17:32.167Z,0.87
2018-09-06T21:20:03.533Z,0.90
2018-09-06T21:22:34.852Z,1.03
2018-09-06T21:25:06.010Z,1.33
2018-09-06T21:27:37.503Z,1.00
2018-09-06T21:32:40.727Z,1.10
2018-09-06T21:35:12.234Z,0.70
2018-09-06T21:37:43.649Z,0.70
2018-09-06T21:40:15.071Z,0.97
2018-09-06T21:42:46.262Z,1.10
2018-09-06T21:45:17.374Z,1.03
2018-09-06T21:47:48.433Z,1.00
2018-09-06T21:50:19.884Z,1.10
2018-09-06T21:52:50.999Z,1.10
2018-09-06T21:55:22.230Z,0.60
2018-09-06T21:57:53.315Z,0.93
2018-09-06T22:00:24.291Z,0.93
2018-09-06T22:02:59.918Z,0.90
2018-09-06T22:05:30.892Z,0.87
2018-09-06T22:08:01.898Z,0.70
2018-09-06T22:10:32.956Z,1.13
2018-09-06T22:13:04.032Z,1.47
2018-09-06T22:15:35.235Z,0.90
2018-09-06T22:18:06.503Z,0.80
2018-09-06T22:20:37.892Z,0.93
2018-09-06T22:23:09.500Z,0.83
2018-09-06T22:25:40.619Z,0.93
2018-09-06T22:28:12.026Z,0.80
2018-09-06T22:30:43.747Z,0.90
2018-09-06T22:35:40.819Z,0.80
2018-09-06T22:38:12.498Z,0.70
2018-09-06T22:40:43.696Z,1.10
2018-09-06T22:43:46.719Z,0.60
2018-09-06T22:46:17.662Z,1.03
2018-09-06T22:48:48.995Z,0.93
2018-09-06T22:51:20.323Z,0.77
2018-09-06T22:53:51.355Z,0.83
2018-09-06T22:56:22.821Z,0.80
2018-09-06T22:58:54.454Z,1.00
2018-09-06T23:01:25.822Z,0.60
2018-09-06T23:03:56.862Z,0.77
2018-09-06T23:06:28.006Z,0.70
2018-09-06T23:08:59.303Z,0.80
2018-09-06T23:11:30.413Z,0.70
2018-09-06T23:14:01.733Z,0.90
2018-09-06T23:16:32.763Z,1.30
2018-09-06T23:19:04.032Z,0.90
2018-09-06T23:21:35.374Z,0.97
2018-09-06T23:24:06.634Z,0.70
2018-09-06T23:26:38.336Z,1.07
2018-09-06T23:29:09.449Z,1.10
2018-09-06T23:31:40.804Z,0.70
2018-09-06T23:34:11.910Z,1.00
2018-09-06T23:36:43.352Z,0.87
2018-09-06T23:39:15.028Z,0.87
2018-09-06T23:41:46.428Z,1.30
2018-09-06T23:44:17.835Z,1.73
2018-09-06T23:46:49.187Z,1.40
2018-09-06T23:49:20.299Z,1.10
2018-09-06T23:51:51.590Z,1.40
2018-09-06T23:54:23.759Z,1.07
2018-09-06T23:56:55.151Z,1.40
2018-09-06T23:59:26.432Z,1.83
